createdAt,value
2023-03-25T00:01:29.833Z,10.24
2023-03-25T00:03:58.740Z,10.24
2023-03-25T00:06:34.488Z,10.27
2023-03-25T00:09:11.443Z,10.13
2023-03-25T00:11:43.466Z,9.79
2023-03-25T00:14:17.707Z,10.05
2023-03-25T00:16:49.511Z,9.99
2023-03-25T00:19:21.578Z,9.93
2023-03-25T00:21:52.130Z,9.93
2023-03-25T00:24:22.285Z,9.94
2023-03-25T00:26:54.220Z,9.54
2023-03-25T00:29:35.836Z,9.72
2023-03-25T00:32:07.108Z,9.52
2023-03-25T00:34:41.722Z,9.65
2023-03-25T00:37:10.251Z,9.89
2023-03-25T00:39:39.332Z,9.74
2023-03-25T00:42:11.144Z,9.76
2023-03-25T00:44:41.452Z,9.74
2023-03-25T00:47:20.437Z,9.70
2023-03-25T00:49:52.066Z,9.79
2023-03-25T00:52:25.896Z,9.72
2023-03-25T00:54:54.167Z,9.59
2023-03-25T00:57:24.875Z,9.62
2023-03-25T00:59:53.307Z,9.84
2023-03-25T01:02:27.024Z,9.87
2023-03-25T01:05:02.534Z,9.62
2023-03-25T01:07:34.345Z,9.71
2023-03-25T01:10:07.260Z,9.76
2023-03-25T01:12:39.996Z,9.84
2023-03-25T01:15:19.854Z,9.90
2023-03-25T01:17:58.968Z,9.67
2023-03-25T01:20:31.426Z,9.86
2023-03-25T01:23:00.278Z,9.88
2023-03-25T01:25:28.292Z,9.90
2023-03-25T01:27:59.924Z,9.93
2023-03-25T01:30:28.651Z,9.89
2023-03-25T01:32:57.199Z,9.59
2023-03-25T01:35:25.564Z,9.85
2023-03-25T01:37:54.945Z,9.82
2023-03-25T01:40:31.215Z,9.78
2023-03-25T01:43:04.438Z,9.78
2023-03-25T01:45:43.563Z,9.71
2023-03-25T01:48:18.686Z,9.76
2023-03-25T01:50:54.157Z,9.83
2023-03-25T01:53:22.607Z,9.88
2023-03-25T01:55:53.810Z,9.79
2023-03-25T01:58:27.224Z,9.86
2023-03-25T02:00:58.212Z,9.97
2023-03-25T02:03:27.996Z,9.94
2023-03-25T02:06:04.881Z,10.09
2023-03-25T02:08:37.875Z,9.92
2023-03-25T02:11:10.591Z,10.10
2023-03-25T02:13:43.321Z,10.06
2023-03-25T02:16:28.825Z,10.05
2023-03-25T02:19:19.953Z,9.99
2023-03-25T02:22:25.696Z,9.93
2023-03-25T02:25:22.403Z,9.84
2023-03-25T02:28:05.041Z,9.99
2023-03-25T02:30:59.101Z,9.99
2023-03-25T02:33:44.301Z,9.90
2023-03-25T02:37:03.543Z,9.84
2023-03-25T02:39:39.877Z,9.87
2023-03-25T02:42:18.340Z,9.87
2023-03-25T02:44:55.202Z,9.80
2023-03-25T02:47:25.838Z,9.75
2023-03-25T02:49:59.529Z,9.79
2023-03-25T02:52:33.010Z,9.75
2023-03-25T02:55:05.243Z,9.91
2023-03-25T02:57:40.561Z,9.86
2023-03-25T03:00:15.546Z,9.85
2023-03-25T03:02:46.644Z,9.77
2023-03-25T03:05:28.591Z,9.54
2023-03-25T03:08:23.288Z,9.80
2023-03-25T03:11:03.653Z,9.55
2023-03-25T03:13:47.993Z,9.87
2023-03-25T03:16:27.404Z,9.76
2023-03-25T03:19:03.665Z,9.65
2023-03-25T03:21:44.388Z,9.88
2023-03-25T03:24:22.928Z,9.95
2023-03-25T03:26:58.777Z,10.05
2023-03-25T03:29:44.041Z,9.79
2023-03-25T03:32:18.726Z,9.99
2023-03-25T03:34:51.742Z,10.03
2023-03-25T03:37:27.573Z,10.08
2023-03-25T03:39:58.959Z,10.03
2023-03-25T03:42:33.400Z,10.15
2023-03-25T03:45:07.276Z,10.06
2023-03-25T03:47:41.426Z,9.87
2023-03-25T03:50:19.086Z,10.01
2023-03-25T03:53:00.649Z,9.87
2023-03-25T03:55:40.177Z,9.87
2023-03-25T03:58:17.957Z,9.81
2023-03-25T04:00:54.548Z,9.46
2023-03-25T04:03:29.076Z,9.18
2023-03-25T04:06:06.957Z,9.51
2023-03-25T04:08:43.000Z,9.60
2023-03-25T04:11:17.668Z,9.63
2023-03-25T04:13:51.747Z,9.54
2023-03-25T04:16:21.307Z,9.43
2023-03-25T04:18:55.062Z,9.21
2023-03-25T04:21:26.415Z,9.42
2023-03-25T04:23:54.336Z,9.17
2023-03-25T04:26:23.934Z,9.22
2023-03-25T04:28:54.053Z,9.34
2023-03-25T04:31:22.207Z,9.07
2023-03-25T04:33:53.264Z,9.41
2023-03-25T04:36:22.746Z,9.49
2023-03-25T04:38:53.199Z,9.26
2023-03-25T04:41:23.359Z,9.51
2023-03-25T04:43:51.676Z,9.59
2023-03-25T04:46:24.861Z,9.34
2023-03-25T04:48:57.247Z,9.52
2023-03-25T04:51:25.637Z,9.58
2023-03-25T04:53:55.265Z,9.60
2023-03-25T04:56:23.481Z,9.72
2023-03-25T04:58:53.899Z,9.79
2023-03-25T05:01:31.204Z,9.68
2023-03-25T05:04:06.294Z,9.80
2023-03-25T05:06:35.783Z,9.79
2023-03-25T05:09:08.625Z,9.62
2023-03-25T05:11:39.781Z,9.75
2023-03-25T05:14:11.418Z,9.84
2023-03-25T05:16:42.738Z,9.61
2023-03-25T05:19:13.306Z,9.67
2023-03-25T05:21:44.585Z,9.48
2023-03-25T05:24:14.821Z,9.59
2023-03-25T05:26:45.266Z,9.70
2023-03-25T05:29:24.454Z,9.72
2023-03-25T05:31:57.089Z,9.74
2023-03-25T05:34:25.725Z,9.75
2023-03-25T05:36:56.705Z,9.58
2023-03-25T05:39:26.213Z,9.58
2023-03-25T05:41:55.788Z,9.51
2023-03-25T05:44:27.106Z,9.36
2023-03-25T05:47:01.173Z,9.47
2023-03-25T05:49:32.060Z,9.43
2023-03-25T05:52:01.931Z,9.42
2023-03-25T05:54:34.632Z,9.45
2023-03-25T05:57:03.138Z,9.24
2023-03-25T05:59:31.891Z,9.38
2023-03-25T06:02:02.117Z,9.59
2023-03-25T06:04:33.805Z,9.56
2023-03-25T06:07:03.953Z,9.45
2023-03-25T06:09:35.410Z,9.49
2023-03-25T06:12:07.218Z,9.27
2023-03-25T06:14:36.282Z,9.46
2023-03-25T06:17:08.657Z,9.47
2023-03-25T06:19:39.121Z,9.66
2023-03-25T06:22:09.433Z,9.59
2023-03-25T06:24:39.059Z,9.31
2023-03-25T06:27:13.470Z,9.54
2023-03-25T06:29:43.499Z,9.64
2023-03-25T06:32:19.593Z,9.85
2023-03-25T06:34:50.162Z,9.90
2023-03-25T06:37:21.880Z,9.94
2023-03-25T06:39:51.573Z,9.75
2023-03-25T06:42:19.900Z,10.15
2023-03-25T06:44:47.931Z,10.00
2023-03-25T06:47:20.543Z,10.34
2023-03-25T06:49:49.802Z,10.07
2023-03-25T06:52:17.841Z,10.29
2023-03-25T06:54:46.362Z,10.36
2023-03-25T06:57:15.798Z,10.38
2023-03-25T06:59:45.651Z,10.36
2023-03-25T07:02:15.214Z,10.05
2023-03-25T07:04:46.245Z,10.27
2023-03-25T07:07:14.677Z,10.49
2023-03-25T07:09:42.546Z,10.43
2023-03-25T07:12:11.356Z,10.65
2023-03-25T07:14:43.129Z,10.68
2023-03-25T07:17:15.251Z,10.97
2023-03-25T07:19:45.436Z,10.93
2023-03-25T07:22:14.755Z,11.17
2023-03-25T07:24:44.128Z,10.98
2023-03-25T07:27:12.967Z,10.96
2023-03-25T07:29:44.390Z,10.81
2023-03-25T07:32:13.208Z,11.05
2023-03-25T07:34:43.282Z,11.13
2023-03-25T07:37:16.285Z,11.10
2023-03-25T07:39:47.437Z,10.96
2023-03-25T07:42:17.767Z,11.29
2023-03-25T07:44:46.305Z,11.28
2023-03-25T07:47:14.585Z,11.57
2023-03-25T07:49:42.869Z,11.77
2023-03-25T07:52:19.830Z,11.45
2023-03-25T07:54:48.540Z,11.20
2023-03-25T07:57:18.711Z,11.14
2023-03-25T07:59:48.916Z,11.27
2023-03-25T08:02:17.364Z,11.39
2023-03-25T08:04:48.564Z,11.73
2023-03-25T08:07:18.495Z,11.87
2023-03-25T08:09:49.501Z,12.19
2023-03-25T08:12:17.501Z,11.74
2023-03-25T08:14:48.061Z,11.80
2023-03-25T08:17:16.441Z,12.20
2023-03-25T08:19:44.891Z,11.97
2023-03-25T08:22:13.165Z,12.07
2023-03-25T08:24:45.365Z,12.03
2023-03-25T08:27:16.763Z,12.14
2023-03-25T08:29:47.511Z,12.32
2023-03-25T08:32:19.090Z,12.25
2023-03-25T08:34:51.544Z,12.12
2023-03-25T08:37:22.484Z,12.04
2023-03-25T08:39:55.980Z,12.19
2023-03-25T08:42:24.758Z,12.17
2023-03-25T08:44:53.181Z,12.11
2023-03-25T08:47:25.063Z,12.66
2023-03-25T08:49:55.324Z,12.74
2023-03-25T08:52:27.962Z,12.99
2023-03-25T08:54:58.519Z,12.99
2023-03-25T08:57:28.321Z,13.15
2023-03-25T08:59:56.528Z,12.80
2023-03-25T09:02:27.342Z,13.15
2023-03-25T09:04:57.619Z,12.80
2023-03-25T09:07:28.332Z,12.37
2023-03-25T09:10:18.141Z,12.63
2023-03-25T09:12:47.481Z,12.67
2023-03-25T09:15:17.558Z,12.55
2023-03-25T09:17:54.339Z,12.46
2023-03-25T09:20:24.882Z,12.54
2023-03-25T09:22:57.154Z,12.55
2023-03-25T09:25:27.477Z,12.78
2023-03-25T09:28:07.501Z,13.01
2023-03-25T09:30:39.506Z,12.77
2023-03-25T09:33:19.382Z,12.89
2023-03-25T09:35:54.410Z,13.35
2023-03-25T09:38:23.942Z,13.24
2023-03-25T09:41:01.670Z,13.31
2023-03-25T09:43:54.875Z,13.72
2023-03-25T09:46:26.261Z,13.40
2023-03-25T09:49:00.802Z,13.14
2023-03-25T09:51:35.244Z,12.84
2023-03-25T09:54:17.583Z,11.73
2023-03-25T09:57:09.012Z,8.25
2023-03-25T09:59:47.625Z,6.31
2023-03-25T10:02:29.483Z,6.04
2023-03-25T10:05:30.851Z,5.86
2023-03-25T10:08:09.844Z,6.62
2023-03-25T10:21:59.414Z,8.98
2023-03-25T10:24:46.457Z,9.17
2023-03-25T10:27:24.527Z,9.42
2023-03-25T10:30:04.977Z,9.47
2023-03-25T10:32:41.704Z,9.47
2023-03-25T10:35:20.350Z,9.60
2023-03-25T10:37:53.725Z,9.74
2023-03-25T10:40:31.201Z,9.88
2023-03-25T10:43:13.138Z,9.56
2023-03-25T10:45:45.183Z,10.22
2023-03-25T10:48:17.920Z,10.45
2023-03-25T10:50:49.228Z,10.67
2023-03-25T10:53:24.401Z,10.98
2023-03-25T10:55:59.711Z,10.45
2023-03-25T10:58:28.720Z,10.91
2023-03-25T11:00:57.074Z,11.41
2023-03-25T11:03:41.285Z,11.71
2023-03-25T11:06:41.194Z,11.79
2023-03-25T11:09:25.753Z,11.90
2023-03-25T11:11:55.284Z,12.10
2023-03-25T11:14:27.441Z,11.64
2023-03-25T11:16:59.026Z,11.95
2023-03-25T11:19:32.441Z,12.66
2023-03-25T11:22:04.507Z,12.56
2023-03-25T11:24:41.849Z,12.85
2023-03-25T11:27:12.015Z,12.50
2023-03-25T11:29:41.927Z,12.66
2023-03-25T11:32:16.697Z,12.84
2023-03-25T11:34:52.002Z,12.92
2023-03-25T11:37:31.131Z,13.57
2023-03-25T11:40:15.171Z,13.37
2023-03-25T11:42:50.023Z,13.94
2023-03-25T11:45:24.990Z,13.62
2023-03-25T11:47:55.521Z,13.82
2023-03-25T11:50:27.384Z,13.48
2023-03-25T11:52:59.058Z,13.72
2023-03-25T11:55:33.114Z,13.69
2023-03-25T11:58:09.300Z,13.89
2023-03-25T12:00:44.901Z,13.68
2023-03-25T12:03:21.773Z,13.51
2023-03-25T12:06:20.374Z,13.60
2023-03-25T12:08:56.083Z,14.00
2023-03-25T12:11:37.560Z,13.64
2023-03-25T12:14:27.657Z,13.35
2023-03-25T12:17:12.271Z,13.57
2023-03-25T12:19:58.200Z,13.91
2023-03-25T12:22:39.391Z,14.75
2023-03-25T12:25:28.670Z,14.45
2023-03-25T12:28:27.462Z,14.88
2023-03-25T12:31:05.407Z,14.98
2023-03-25T12:33:48.193Z,15.21
2023-03-25T12:36:38.825Z,15.34
2023-03-25T12:39:35.633Z,15.23
2023-03-25T12:42:21.843Z,15.53
2023-03-25T12:45:05.765Z,15.07
2023-03-25T12:47:39.603Z,15.37
2023-03-25T12:50:28.906Z,15.32
2023-03-25T12:53:10.347Z,15.25
2023-03-25T12:55:55.561Z,15.37
2023-03-25T12:58:48.187Z,14.94
2023-03-25T13:01:36.295Z,14.97
2023-03-25T13:04:22.373Z,14.95
2023-03-25T13:07:02.616Z,14.79
2023-03-25T13:09:44.477Z,15.00
2023-03-25T13:12:20.765Z,14.89
2023-03-25T13:14:55.567Z,15.03
2023-03-25T13:17:31.059Z,14.77
2023-03-25T13:20:04.548Z,14.54
2023-03-25T13:22:37.240Z,14.97
2023-03-25T13:25:10.869Z,15.07
2023-03-25T13:27:43.697Z,14.50
2023-03-25T13:30:28.548Z,13.95
2023-03-25T13:33:08.316Z,13.63
2023-03-25T13:35:45.310Z,13.74
2023-03-25T13:38:22.854Z,14.09
2023-03-25T13:41:10.605Z,14.51
2023-03-25T13:47:32.936Z,14.50
2023-03-25T13:50:53.491Z,14.36
2023-03-25T14:01:04.016Z,14.42
2023-03-25T14:04:32.866Z,14.39
2023-03-25T14:07:41.703Z,14.68
2023-03-25T14:22:31.843Z,14.54
2023-03-25T14:25:06.220Z,14.75
2023-03-25T14:27:37.993Z,14.82
2023-03-25T14:30:20.495Z,15.51
2023-03-25T14:32:48.737Z,16.19
2023-03-25T14:35:59.941Z,17.00
2023-03-25T14:39:00.679Z,17.48
2023-03-25T14:42:06.077Z,18.03
2023-03-25T14:44:43.336Z,17.59
2023-03-25T14:47:32.543Z,18.05
2023-03-25T14:50:08.618Z,18.56
2023-03-25T14:52:41.763Z,18.89
2023-03-25T14:55:16.439Z,18.39
2023-03-25T14:57:48.195Z,17.40
2023-03-25T15:00:29.474Z,17.03
2023-03-25T15:03:04.118Z,16.87
2023-03-25T15:05:35.390Z,16.53
2023-03-25T15:08:16.649Z,16.92
2023-03-25T15:10:50.997Z,16.92
2023-03-25T15:13:23.783Z,18.20
2023-03-25T15:16:02.865Z,17.97
2023-03-25T15:19:11.344Z,18.49
2023-03-25T15:22:22.128Z,18.29
2023-03-25T15:25:00.754Z,17.95
2023-03-25T15:27:46.556Z,18.04
2023-03-25T15:30:48.556Z,17.47
2023-03-25T15:33:31.104Z,17.61
2023-03-25T15:36:16.034Z,18.14
2023-03-25T15:39:02.055Z,19.18
2023-03-25T15:41:57.393Z,20.53
2023-03-25T15:45:05.211Z,18.74
2023-03-25T15:47:51.626Z,16.28
2023-03-25T15:50:36.741Z,15.48
2023-03-25T15:53:42.777Z,15.41
2023-03-25T15:56:14.761Z,15.37
2023-03-25T15:58:53.949Z,15.20
2023-03-25T16:01:31.643Z,14.82
2023-03-25T16:04:05.774Z,15.02
2023-03-25T16:06:46.935Z,14.84
2023-03-25T16:09:28.378Z,14.84
2023-03-25T16:12:02.132Z,15.01
2023-03-25T16:14:32.409Z,15.03
2023-03-25T16:17:06.771Z,15.14
2023-03-25T16:19:41.920Z,14.91
2023-03-25T16:22:24.318Z,14.65
2023-03-25T16:24:53.208Z,15.01
2023-03-25T16:27:24.909Z,14.89
2023-03-25T16:29:57.461Z,14.84
2023-03-25T16:32:33.483Z,14.63
2023-03-25T16:35:07.545Z,14.67
2023-03-25T16:37:42.214Z,14.56
2023-03-25T16:40:21.058Z,14.45
2023-03-25T16:42:50.944Z,14.49
2023-03-25T16:45:23.936Z,14.28
2023-03-25T16:47:58.191Z,14.23
2023-03-25T16:50:27.233Z,14.24
2023-03-25T16:53:02.668Z,14.04
2023-03-25T16:55:33.861Z,14.29
2023-03-25T16:58:04.164Z,14.09
2023-03-25T17:00:44.026Z,13.82
2023-03-25T17:03:20.225Z,13.76
2023-03-25T17:05:59.728Z,13.62
2023-03-25T17:08:32.614Z,13.78
2023-03-25T17:11:04.755Z,13.81
2023-03-25T17:13:46.047Z,13.69
2023-03-25T17:16:15.663Z,13.73
2023-03-25T17:18:45.868Z,13.67
2023-03-25T17:21:26.649Z,13.61
2023-03-25T17:23:59.830Z,13.51
2023-03-25T17:26:34.370Z,13.17
2023-03-25T17:29:08.156Z,13.33
2023-03-25T17:31:38.870Z,13.38
2023-03-25T17:34:13.037Z,13.35
2023-03-25T17:36:43.635Z,12.95
2023-03-25T17:39:19.898Z,13.39
2023-03-25T17:42:00.593Z,13.27
2023-03-25T17:44:35.476Z,13.41
2023-03-25T17:47:05.717Z,13.06
2023-03-25T17:49:37.198Z,13.35
2023-03-25T17:52:05.211Z,13.37
2023-03-25T17:54:35.481Z,12.97
2023-03-25T17:57:15.436Z,13.33
2023-03-25T17:59:43.472Z,13.34
2023-03-25T18:02:19.423Z,12.98
2023-03-25T18:04:47.859Z,12.93
2023-03-25T18:07:21.440Z,13.17
2023-03-25T18:09:52.339Z,13.07
2023-03-25T18:12:21.446Z,13.21
2023-03-25T18:14:50.003Z,12.90
2023-03-25T18:17:18.525Z,12.85
2023-03-25T18:19:46.806Z,13.11
2023-03-25T18:24:48.001Z,12.96
2023-03-25T18:27:22.156Z,12.84
2023-03-25T18:29:53.792Z,12.56
2023-03-25T18:32:22.604Z,12.35
2023-03-25T18:34:50.737Z,12.37
2023-03-25T18:37:21.098Z,12.10
2023-03-25T18:39:50.540Z,12.25
2023-03-25T18:42:20.379Z,11.67
2023-03-25T18:44:52.521Z,11.94
2023-03-25T18:47:22.272Z,11.97
2023-03-25T18:49:55.619Z,11.93
2023-03-25T18:52:26.487Z,11.88
2023-03-25T18:54:55.446Z,11.56
2023-03-25T18:57:25.544Z,11.27
2023-03-25T18:59:54.355Z,11.67
2023-03-25T19:02:22.769Z,11.30
2023-03-25T19:05:00.911Z,11.20
2023-03-25T19:07:30.059Z,11.45
2023-03-25T19:09:58.046Z,11.39
2023-03-25T19:12:30.145Z,10.99
2023-03-25T19:14:58.736Z,11.31
2023-03-25T19:17:29.274Z,11.20
2023-03-25T19:19:57.405Z,10.87
2023-03-25T19:22:25.597Z,11.00
2023-03-25T19:24:55.197Z,10.97
2023-03-25T19:27:23.367Z,11.13
2023-03-25T19:29:54.342Z,11.09
2023-03-25T19:32:22.397Z,10.87
2023-03-25T19:34:51.456Z,10.91
2023-03-25T19:37:24.011Z,10.87
2023-03-25T19:39:52.246Z,10.68
2023-03-25T19:42:20.276Z,10.93
2023-03-25T19:44:50.610Z,11.02
2023-03-25T19:47:23.305Z,10.60
2023-03-25T19:49:54.606Z,10.80
2023-03-25T19:52:23.267Z,10.85
2023-03-25T19:54:51.188Z,10.64
2023-03-25T19:57:22.353Z,10.49
2023-03-25T19:59:51.057Z,10.44
2023-03-25T20:02:21.296Z,10.16
2023-03-25T20:04:50.053Z,10.51
2023-03-25T20:07:20.695Z,10.34
2023-03-25T20:09:51.300Z,10.52
2023-03-25T20:12:22.606Z,10.45
2023-03-25T20:14:52.051Z,10.33
2023-03-25T20:17:21.639Z,10.10
2023-03-25T20:19:50.617Z,10.28
2023-03-25T20:22:24.946Z,10.51
2023-03-25T20:24:55.450Z,10.39
2023-03-25T20:27:23.372Z,10.04
2023-03-25T20:29:51.543Z,10.40
2023-03-25T20:32:21.597Z,10.43
2023-03-25T20:34:50.189Z,10.48
2023-03-25T20:37:18.893Z,10.25
2023-03-25T20:39:46.917Z,10.37
2023-03-25T20:42:17.339Z,10.03
2023-03-25T20:44:49.052Z,10.43
2023-03-25T20:47:17.206Z,10.29
2023-03-25T20:49:46.583Z,10.25
2023-03-25T20:52:17.597Z,10.26
2023-03-25T20:54:45.487Z,9.99
2023-03-25T20:57:15.274Z,10.32
2023-03-25T20:59:44.435Z,10.21
2023-03-25T21:02:12.556Z,9.97
2023-03-25T21:04:40.789Z,10.25
2023-03-25T21:07:11.634Z,10.06
2023-03-25T21:09:39.819Z,9.92
2023-03-25T21:12:07.981Z,9.53
2023-03-25T21:14:38.517Z,10.40
2023-03-25T21:17:07.009Z,10.18
2023-03-25T21:19:35.242Z,10.16
2023-03-25T21:22:05.187Z,10.32
2023-03-25T21:24:36.140Z,10.02
2023-03-25T21:27:05.889Z,10.14
2023-03-25T21:29:34.872Z,10.01
2023-03-25T21:32:03.663Z,10.17
2023-03-25T21:34:33.005Z,10.28
2023-03-25T21:37:05.532Z,10.09
2023-03-25T21:39:35.912Z,9.90
2023-03-25T21:42:09.903Z,10.18
2023-03-25T21:44:43.714Z,10.28
2023-03-25T21:47:11.948Z,10.14
2023-03-25T21:49:43.381Z,10.05
2023-03-25T21:52:13.906Z,9.97
2023-03-25T21:54:44.420Z,9.94
2023-03-25T21:57:14.808Z,10.30
2023-03-25T21:59:43.838Z,10.28
2023-03-25T22:02:14.873Z,10.31
2023-03-25T22:04:42.656Z,10.23
2023-03-25T22:07:11.480Z,10.04
2023-03-25T22:09:41.488Z,9.84
2023-03-25T22:12:13.285Z,9.86
2023-03-25T22:14:46.621Z,9.96
2023-03-25T22:17:14.897Z,10.01
2023-03-25T22:19:42.994Z,9.88
2023-03-25T22:22:18.934Z,9.92
2023-03-25T22:24:50.757Z,9.65
2023-03-25T22:27:24.605Z,9.98
2023-03-25T22:29:54.116Z,9.76
2023-03-25T22:32:26.978Z,9.89
2023-03-25T22:34:55.674Z,9.95
2023-03-25T22:37:24.208Z,9.56
2023-03-25T22:39:53.077Z,9.95
2023-03-25T22:42:22.357Z,9.74
2023-03-25T22:44:50.631Z,9.72
2023-03-25T22:47:19.889Z,9.93
2023-03-25T22:49:47.732Z,9.77
2023-03-25T22:52:15.655Z,9.98
2023-03-25T22:54:43.645Z,10.00
2023-03-25T22:57:11.917Z,9.85
2023-03-25T22:59:41.648Z,9.94
2023-03-25T23:02:13.175Z,9.94
2023-03-25T23:04:46.771Z,9.88
2023-03-25T23:07:15.903Z,9.96
2023-03-25T23:09:44.158Z,9.96
2023-03-25T23:12:14.623Z,9.78
2023-03-25T23:14:49.329Z,9.49
2023-03-25T23:17:17.864Z,9.36
2023-03-25T23:19:47.451Z,9.28
2023-03-25T23:22:16.706Z,9.52
2023-03-25T23:24:45.128Z,9.48
2023-03-25T23:27:14.671Z,9.25
2023-03-25T23:29:58.329Z,9.42
2023-03-25T23:32:27.979Z,9.49
2023-03-25T23:35:03.174Z,9.39
2023-03-25T23:37:34.826Z,9.47
2023-03-25T23:40:04.337Z,9.51
2023-03-25T23:42:35.452Z,9.29
2023-03-25T23:45:09.675Z,9.41
2023-03-25T23:47:38.174Z,9.44
2023-03-25T23:50:07.134Z,9.44
2023-03-25T23:52:40.495Z,9.50
2023-03-25T23:55:12.309Z,9.42
2023-03-25T23:57:42.432Z,9.63
